createdAt,value
2023-05-16T00:00:42.356Z,94499.34
2023-05-16T00:03:12.176Z,94502.88
2023-05-16T00:05:41.440Z,94498.44
2023-05-16T00:08:09.066Z,94501.44
2023-05-16T00:10:37.154Z,94496.81
2023-05-16T00:13:04.776Z,94496.56
2023-05-16T00:15:32.439Z,94504.72
2023-05-16T00:18:00.420Z,94497.06
2023-05-16T00:20:28.880Z,94498.97
2023-05-16T00:23:01.077Z,94498.97
2023-05-16T00:25:29.077Z,94497.06
2023-05-16T00:27:56.693Z,94493.28
2023-05-16T00:30:24.355Z,94496.00
2023-05-16T00:32:52.088Z,94487.84
2023-05-16T00:35:19.898Z,94490.56
2023-05-16T00:37:47.508Z,94487.84
2023-05-16T00:40:16.477Z,94488.09
2023-05-16T00:42:44.728Z,94491.06
2023-05-16T00:45:12.808Z,94482.66
2023-05-16T00:47:40.475Z,94482.41
2023-05-16T00:50:08.674Z,94485.38
2023-05-16T00:52:36.334Z,94479.69
2023-05-16T00:55:04.329Z,94481.06
2023-05-16T00:57:33.389Z,94479.09
2023-05-16T01:00:01.038Z,94477.47
2023-05-16T01:02:30.105Z,94479.34
2023-05-16T01:04:57.910Z,94477.91
2023-05-16T01:07:25.510Z,94472.97
2023-05-16T01:09:53.449Z,94473.22
2023-05-16T01:12:25.370Z,94480.06
2023-05-16T01:14:58.058Z,94481.13
2023-05-16T01:17:31.162Z,94485.50
2023-05-16T01:20:06.426Z,94483.84
2023-05-16T01:22:54.364Z,94481.13
2023-05-16T01:25:33.571Z,94478.41
2023-05-16T01:28:03.177Z,94477.78
2023-05-16T01:30:35.104Z,94476.59
2023-05-16T01:33:02.796Z,94470.38
2023-05-16T01:35:31.010Z,94470.13
2023-05-16T01:38:04.148Z,94465.19
2023-05-16T01:40:37.855Z,94465.75
2023-05-16T01:43:12.297Z,94455.69
2023-05-16T01:45:43.000Z,94462.53
2023-05-16T01:48:14.165Z,94457.34
2023-05-16T01:50:44.816Z,94460.50
2023-05-16T01:53:16.274Z,94465.28
2023-05-16T01:55:45.896Z,94468.50
2023-05-16T01:58:16.111Z,94462.81
2023-05-16T02:00:44.789Z,94457.31
2023-05-16T02:03:12.631Z,94450.47
2023-05-16T02:05:40.464Z,94452.63
2023-05-16T02:08:09.673Z,94457.25
2023-05-16T02:10:37.289Z,94453.69
2023-05-16T02:13:04.853Z,94455.59
2023-05-16T02:15:33.886Z,94457.47
2023-05-16T02:18:01.525Z,94449.34
2023-05-16T02:20:29.382Z,94452.31
2023-05-16T02:22:56.976Z,94458.78
2023-05-16T02:25:25.760Z,94459.88
2023-05-16T02:27:53.605Z,94457.72
2023-05-16T02:30:21.298Z,94456.31
2023-05-16T02:32:50.447Z,94463.91
2023-05-16T02:35:18.599Z,94460.88
2023-05-16T02:37:46.489Z,94463.56
2023-05-16T02:40:15.331Z,94459.22
2023-05-16T02:42:42.916Z,94461.03
2023-05-16T02:45:11.446Z,94458.56
2023-05-16T02:47:39.119Z,94463.75
2023-05-16T02:50:09.001Z,94463.50
2023-05-16T02:52:36.573Z,94461.34
2023-05-16T02:55:20.989Z,94459.72
2023-05-16T02:57:52.014Z,94457.75
2023-05-16T03:00:20.513Z,94463.66
2023-05-16T03:02:48.305Z,94464.16
2023-05-16T03:05:17.610Z,94455.75
2023-05-16T03:07:45.382Z,94458.47
2023-05-16T03:10:13.015Z,94463.66
2023-05-16T03:12:40.728Z,94461.75
2023-05-16T03:15:09.724Z,94464.00
2023-05-16T03:17:37.386Z,94457.25
2023-05-16T03:20:09.563Z,94461.84
2023-05-16T03:22:38.406Z,94452.06
2023-05-16T03:25:07.918Z,94446.03
2023-05-16T03:27:35.589Z,94449.28
2023-05-16T03:30:03.464Z,94451.16
2023-05-16T03:32:31.123Z,94453.88
2023-05-16T03:34:58.758Z,94452.81
2023-05-16T03:37:26.655Z,94452.56
2023-05-16T03:39:56.017Z,94451.75
2023-05-16T03:42:23.627Z,94452.31
2023-05-16T03:44:51.249Z,94446.03
2023-05-16T03:47:18.935Z,94455.28
2023-05-16T03:49:46.619Z,94452.81
2023-05-16T03:52:14.333Z,94460.88
2023-05-16T03:54:41.956Z,94449.38
2023-05-16T03:57:10.912Z,94451.97
2023-05-16T03:59:39.184Z,94449.25
2023-05-16T04:02:08.005Z,94449.84
2023-05-16T04:04:35.764Z,94452.81
2023-05-16T04:07:03.633Z,94457.41
2023-05-16T04:09:31.541Z,94458.25
2023-05-16T04:12:01.859Z,94450.34
2023-05-16T04:14:30.938Z,94444.69
2023-05-16T04:16:58.780Z,94452.56
2023-05-16T04:19:26.496Z,94450.44
2023-05-16T04:21:54.284Z,94452.41
2023-05-16T04:24:26.266Z,94454.09
2023-05-16T04:26:55.002Z,94455.28
2023-05-16T04:29:23.501Z,94456.41
2023-05-16T04:32:02.495Z,94455.91
2023-05-16T04:34:30.778Z,94452.47
2023-05-16T04:36:58.402Z,94458.78
2023-05-16T04:39:26.101Z,94455.34
2023-05-16T04:41:54.665Z,94447.03
2023-05-16T04:44:22.284Z,94448.19
2023-05-16T04:46:49.944Z,94449.31
2023-05-16T04:49:19.071Z,94450.19
2023-05-16T04:51:48.018Z,94454.88
2023-05-16T04:54:15.815Z,94455.13
2023-05-16T04:56:43.495Z,94455.44
2023-05-16T04:59:11.150Z,94456.59
2023-05-16T05:01:39.746Z,94455.88
2023-05-16T05:04:07.560Z,94464.31
2023-05-16T05:06:36.558Z,94464.41
2023-05-16T05:09:05.792Z,94464.47
2023-05-16T05:11:33.482Z,94453.66
2023-05-16T05:14:01.091Z,94458.28
2023-05-16T05:16:28.987Z,94456.94
2023-05-16T05:18:56.910Z,94455.81
2023-05-16T05:21:25.447Z,94463.97
2023-05-16T05:23:54.457Z,94473.59
2023-05-16T05:26:22.374Z,94471.97
2023-05-16T05:29:01.077Z,94469.16
2023-05-16T05:31:33.771Z,94472.25
2023-05-16T05:34:01.532Z,94468.59
2023-05-16T05:36:29.182Z,94467.75
2023-05-16T05:38:58.621Z,94462.13
2023-05-16T05:41:26.331Z,94460.59
2023-05-16T05:43:53.979Z,94465.53
2023-05-16T05:46:21.712Z,94466.66
2023-05-16T05:48:49.434Z,94469.38
2023-05-16T05:51:17.716Z,94467.75
2023-05-16T05:53:45.499Z,94457.25
2023-05-16T05:56:14.490Z,94467.41
2023-05-16T05:58:42.516Z,94463.91
2023-05-16T06:01:11.527Z,94462.59
2023-05-16T06:03:39.276Z,94458.78
2023-05-16T06:06:07.532Z,94463.03
2023-05-16T06:08:35.200Z,94455.38
2023-05-16T06:11:02.856Z,94446.72
2023-05-16T06:13:31.845Z,94452.16
2023-05-16T06:15:59.547Z,94471.31
2023-05-16T06:18:27.647Z,94462.03
2023-05-16T06:20:55.254Z,94466.16
2023-05-16T06:23:22.968Z,94469.56
2023-05-16T06:25:51.319Z,94460.91
2023-05-16T06:28:18.927Z,94464.38
2023-05-16T06:30:48.145Z,94457.66
2023-05-16T06:33:15.904Z,94453.16
2023-05-16T06:35:43.531Z,94467.22
2023-05-16T06:38:11.134Z,94460.72
2023-05-16T06:40:38.820Z,94462.38
2023-05-16T06:43:06.474Z,94464.59
2023-05-16T06:45:34.434Z,94459.16
2023-05-16T06:48:03.508Z,94459.41
2023-05-16T06:50:31.229Z,94458.91
2023-05-16T06:52:58.952Z,94458.47
2023-05-16T06:55:26.867Z,94449.50
2023-05-16T06:57:54.705Z,94451.41
2023-05-16T07:00:23.052Z,94449.75
2023-05-16T07:02:50.795Z,94446.16
2023-05-16T07:05:20.175Z,94445.41
2023-05-16T07:07:49.481Z,94450.06
2023-05-16T07:10:17.166Z,94452.22
2023-05-16T07:12:44.841Z,94455.72
2023-05-16T07:15:13.094Z,94459.31
2023-05-16T07:17:40.775Z,94454.03
2023-05-16T07:20:13.394Z,94460.09
2023-05-16T07:22:42.425Z,94456.03
2023-05-16T07:25:12.701Z,94456.91
2023-05-16T07:27:41.715Z,94454.44
2023-05-16T07:30:10.861Z,94454.22
2023-05-16T07:32:38.959Z,94457.88
2023-05-16T07:35:07.412Z,94458.22
2023-05-16T07:37:35.247Z,94469.16
2023-05-16T07:40:04.661Z,94471.38
2023-05-16T07:42:32.449Z,94477.09
2023-05-16T07:45:00.125Z,94475.22
2023-05-16T07:47:27.782Z,94478.13
2023-05-16T07:49:55.533Z,94470.25
2023-05-16T07:52:23.265Z,94477.66
2023-05-16T07:54:50.932Z,94482.31
2023-05-16T07:57:20.886Z,94476.13
2023-05-16T07:59:49.392Z,94486.75
2023-05-16T08:02:17.177Z,94484.81
2023-05-16T08:04:44.850Z,94485.41
2023-05-16T08:07:12.651Z,94478.88
2023-05-16T08:09:40.385Z,94490.41
2023-05-16T08:12:09.132Z,94484.09
2023-05-16T08:14:38.285Z,94490.16
2023-05-16T08:17:06.351Z,94490.09
2023-05-16T08:19:34.024Z,94488.16
2023-05-16T08:22:02.871Z,94484.66
2023-05-16T08:24:30.714Z,94493.69
2023-05-16T08:26:58.414Z,94491.97
2023-05-16T08:29:26.541Z,94500.59
2023-05-16T08:31:55.544Z,94494.66
2023-05-16T08:34:23.206Z,94499.31
2023-05-16T08:36:50.900Z,94503.66
2023-05-16T08:39:18.643Z,94498.72
2023-05-16T08:41:46.321Z,94501.31
2023-05-16T08:44:21.192Z,94503.50
2023-05-16T08:46:52.414Z,94509.75
2023-05-16T08:49:22.111Z,94506.03
2023-05-16T08:51:50.474Z,94502.22
2023-05-16T08:54:18.138Z,94509.03
2023-05-16T08:56:46.807Z,94507.06
2023-05-16T08:59:14.707Z,94512.72
2023-05-16T09:01:42.713Z,94501.16
2023-05-16T09:04:10.845Z,94501.16
2023-05-16T09:06:39.831Z,94496.34
2023-05-16T09:09:09.453Z,94495.09
2023-05-16T09:11:37.349Z,94489.34
2023-05-16T09:14:05.655Z,94488.50
2023-05-16T09:16:33.357Z,94483.91
2023-05-16T09:19:02.322Z,94495.16
2023-05-16T09:21:31.886Z,94488.41
2023-05-16T09:24:05.916Z,94482.66
2023-05-16T09:26:34.285Z,94477.72
2023-05-16T09:29:02.303Z,94482.97
2023-05-16T09:31:36.782Z,94492.97
2023-05-16T09:34:05.120Z,94487.06
2023-05-16T09:36:33.440Z,94475.94
2023-05-16T09:39:01.850Z,94474.38
2023-05-16T09:41:34.266Z,94478.22
2023-05-16T09:44:05.174Z,94479.31
2023-05-16T09:46:35.376Z,94480.19
2023-05-16T09:49:03.893Z,94473.25
2023-05-16T09:51:31.977Z,94477.44
2023-05-16T09:53:59.769Z,94481.59
2023-05-16T09:56:27.460Z,94490.81
2023-05-16T09:58:56.593Z,94498.44
2023-05-16T10:01:24.861Z,94499.59
2023-05-16T10:03:52.829Z,94508.63
2023-05-16T10:06:20.743Z,94512.22
2023-05-16T10:08:48.927Z,94502.91
2023-05-16T10:11:17.888Z,94520.38
2023-05-16T10:13:50.396Z,94505.63
2023-05-16T10:16:19.952Z,94505.06
2023-05-16T10:18:48.037Z,94506.22
2023-05-16T10:21:16.602Z,94510.56
2023-05-16T10:23:45.342Z,94492.06
2023-05-16T10:26:14.538Z,94510.59
2023-05-16T10:28:42.919Z,94511.09
2023-05-16T10:31:12.018Z,94510.78
2023-05-16T10:33:41.366Z,94518.09
2023-05-16T10:36:09.878Z,94517.47
2023-05-16T10:38:37.826Z,94519.63
2023-05-16T10:41:06.420Z,94527.09
2023-05-16T10:43:34.175Z,94523.50
2023-05-16T10:46:04.919Z,94521.84
2023-05-16T10:48:33.731Z,94512.59
2023-05-16T10:51:04.155Z,94509.13
2023-05-16T10:53:33.491Z,94502.88
2023-05-16T10:56:12.020Z,94497.16
2023-05-16T10:58:48.047Z,94498.84
2023-05-16T11:01:19.653Z,94501.44
2023-05-16T11:04:11.069Z,94502.06
2023-05-16T11:06:52.365Z,94513.75
2023-05-16T11:09:28.193Z,94514.63
2023-05-16T11:12:02.719Z,94517.66
2023-05-16T11:14:37.531Z,94524.47
2023-05-16T11:17:09.379Z,94508.94
2023-05-16T11:19:41.397Z,94508.09
2023-05-16T11:22:17.050Z,94506.13
2023-05-16T11:24:53.076Z,94503.41
2023-05-16T11:27:25.713Z,94508.28
2023-05-16T11:29:53.695Z,94502.03
2023-05-16T11:32:22.999Z,94500.13
2023-05-16T11:34:51.185Z,94495.19
2023-05-16T11:37:21.017Z,94490.88
2023-05-16T11:39:48.942Z,94496.84
2023-05-16T11:42:17.933Z,94495.72
2023-05-16T11:44:45.821Z,94490.88
2023-05-16T11:47:13.668Z,94498.50
2023-05-16T11:49:41.450Z,94493.63
2023-05-16T11:52:09.629Z,94484.44
2023-05-16T11:54:38.717Z,94491.97
2023-05-16T11:57:06.881Z,94488.94
2023-05-16T11:59:34.709Z,94482.13
2023-05-16T12:02:05.633Z,94484.44
2023-05-16T12:04:33.503Z,94487.66
2023-05-16T12:07:02.539Z,94495.34
2023-05-16T12:09:30.178Z,94491.25
2023-05-16T12:11:59.182Z,94492.66
2023-05-16T12:14:27.095Z,94499.22
2023-05-16T12:16:55.301Z,94491.63
2023-05-16T12:19:23.241Z,94498.47
2023-05-16T12:21:54.295Z,94499.88
2023-05-16T12:24:22.226Z,94491.16
2023-05-16T12:26:49.965Z,94491.41
2023-05-16T12:29:25.132Z,94493.56
2023-05-16T12:31:54.754Z,94482.66
2023-05-16T12:34:23.397Z,94479.59
2023-05-16T12:36:54.657Z,94486.56
2023-05-16T12:39:23.004Z,94473.63
2023-05-16T12:41:50.684Z,94474.47
2023-05-16T12:44:20.573Z,94484.28
2023-05-16T12:46:51.416Z,94473.44
2023-05-16T12:49:21.346Z,94471.63
2023-05-16T12:51:52.585Z,94469.72
2023-05-16T12:54:22.799Z,94477.91
2023-05-16T12:56:50.568Z,94480.66
2023-05-16T12:59:20.232Z,94485.84
2023-05-16T13:01:48.033Z,94482.31
2023-05-16T13:04:19.123Z,94479.09
2023-05-16T13:06:58.610Z,94482.97
2023-05-16T13:09:32.015Z,94483.41
2023-05-16T13:12:00.818Z,94480.66
2023-05-16T13:14:31.112Z,94479.06
2023-05-16T13:16:58.860Z,94483.72
2023-05-16T13:19:26.615Z,94481.56
2023-05-16T13:21:54.487Z,94482.75
2023-05-16T13:24:22.281Z,94482.53
2023-05-16T13:26:49.989Z,94473.31
2023-05-16T13:29:17.756Z,94480.94
2023-05-16T13:31:46.849Z,94491.84
2023-05-16T13:34:14.499Z,94489.69
2023-05-16T13:39:18.404Z,94496.44
2023-05-16T13:41:48.058Z,94499.47
2023-05-16T13:44:16.669Z,94522.34
2023-05-16T13:46:45.979Z,94524.81
2023-05-16T13:49:13.680Z,94514.38
2023-05-16T13:51:41.363Z,94505.72
2023-05-16T13:54:09.130Z,94503.84
2023-05-16T13:56:36.812Z,94503.94
2023-05-16T13:59:07.217Z,94503.34
2023-05-16T14:01:36.447Z,94499.66
2023-05-16T14:04:06.041Z,94507.91
2023-05-16T14:06:34.175Z,94506.63
2023-05-16T14:09:02.012Z,94503.03
2023-05-16T14:11:29.817Z,94510.53
2023-05-16T14:13:57.774Z,94505.44
2023-05-16T14:16:25.922Z,94511.44
2023-05-16T14:18:53.707Z,94508.13
2023-05-16T14:21:22.785Z,94508.16
2023-05-16T14:23:50.450Z,94509.38
2023-05-16T14:26:22.400Z,94509.41
2023-05-16T14:28:52.518Z,94506.31
2023-05-16T14:31:20.224Z,94512.91
2023-05-16T14:33:47.945Z,94516.06
2023-05-16T14:36:16.155Z,94513.69
2023-05-16T14:38:45.170Z,94519.97
2023-05-16T14:41:12.830Z,94518.91
2023-05-16T14:43:40.472Z,94517.59
2023-05-16T14:46:08.258Z,94521.72
2023-05-16T14:48:35.972Z,94528.69
2023-05-16T14:51:04.117Z,94526.78
2023-05-16T14:53:31.764Z,94534.88
2023-05-16T14:56:02.721Z,94537.34
2023-05-16T14:58:30.717Z,94541.63
2023-05-16T15:00:58.588Z,94539.97
2023-05-16T15:03:26.467Z,94548.66
2023-05-16T15:05:54.690Z,94546.78
2023-05-16T15:08:22.517Z,94545.53
2023-05-16T15:10:50.174Z,94550.97
2023-05-16T15:13:19.450Z,94553.66
2023-05-16T15:15:47.102Z,94548.47
2023-05-16T15:18:14.815Z,94563.19
2023-05-16T15:20:42.425Z,94554.53
2023-05-16T15:23:10.118Z,94559.97
2023-05-16T15:25:38.090Z,94558.66
2023-05-16T15:28:06.227Z,94563.38
2023-05-16T15:30:35.229Z,94569.44
2023-05-16T15:33:02.949Z,94573.53
2023-05-16T15:35:30.870Z,94563.78
2023-05-16T15:37:59.802Z,94573.72
2023-05-16T15:40:27.621Z,94569.13
2023-05-16T15:42:55.424Z,94570.69
2023-05-16T15:45:23.083Z,94569.94
2023-05-16T15:47:52.158Z,94571.59
2023-05-16T15:50:19.857Z,94566.41
2023-05-16T15:52:47.516Z,94571.00
2023-05-16T15:55:15.242Z,94569.94
2023-05-16T15:57:44.071Z,94576.53
2023-05-16T16:00:12.912Z,94575.16
2023-05-16T16:02:42.360Z,94580.63
2023-05-16T16:05:11.627Z,94589.66
2023-05-16T16:07:39.316Z,94587.72
2023-05-16T16:10:08.277Z,94590.69
2023-05-16T16:12:37.084Z,94589.34
2023-05-16T16:15:06.500Z,94593.16
2023-05-16T16:17:34.410Z,94590.41
2023-05-16T16:20:02.097Z,94593.88
2023-05-16T16:22:31.305Z,94590.66
2023-05-16T16:24:58.961Z,94589.84
2023-05-16T16:27:26.620Z,94593.97
2023-05-16T16:29:54.281Z,94601.03
2023-05-16T16:32:22.071Z,94607.09
2023-05-16T16:34:50.210Z,94604.88
2023-05-16T16:37:17.819Z,94607.84
2023-05-16T16:39:46.825Z,94605.69
2023-05-16T16:42:14.498Z,94607.34
2023-05-16T16:44:42.216Z,94615.72
2023-05-16T16:47:10.129Z,94612.13
2023-05-16T16:49:37.829Z,94620.56
2023-05-16T16:52:05.998Z,94621.13
2023-05-16T16:54:33.637Z,94629.78
2023-05-16T16:57:02.698Z,94629.72
2023-05-16T16:59:30.368Z,94631.06
2023-05-16T17:01:58.031Z,94634.63
2023-05-16T17:04:25.818Z,94631.25
2023-05-16T17:06:53.540Z,94634.44
2023-05-16T17:09:22.075Z,94639.06
2023-05-16T17:11:49.745Z,94642.03
2023-05-16T17:14:18.739Z,94651.78
2023-05-16T17:16:46.483Z,94650.69
2023-05-16T17:19:14.187Z,94651.53
2023-05-16T17:21:43.563Z,94649.31
2023-05-16T17:24:11.249Z,94653.94
2023-05-16T17:26:39.146Z,94654.50
2023-05-16T17:29:06.834Z,94652.28
2023-05-16T17:31:36.261Z,94650.63
2023-05-16T17:34:03.886Z,94658.53
2023-05-16T17:36:31.990Z,94652.84
2023-05-16T17:38:59.670Z,94647.16
2023-05-16T17:41:27.325Z,94655.31
2023-05-16T17:43:54.986Z,94641.41
2023-05-16T17:46:22.617Z,94654.03
2023-05-16T17:48:51.624Z,94653.75
2023-05-16T17:51:19.250Z,94652.44
2023-05-16T17:53:46.897Z,94655.16
2023-05-16T17:56:14.564Z,94657.06
2023-05-16T17:58:42.568Z,94656.47
2023-05-16T18:01:10.290Z,94658.94
2023-05-16T18:03:38.562Z,94659.72
2023-05-16T18:06:08.111Z,94665.09
2023-05-16T18:08:35.923Z,94676.47
2023-05-16T18:11:03.581Z,94665.59
2023-05-16T18:13:31.312Z,94665.00
2023-05-16T18:15:59.139Z,94663.94
2023-05-16T18:18:27.255Z,94664.56
2023-05-16T18:20:55.022Z,94659.84
2023-05-16T18:23:24.742Z,94664.47
2023-05-16T18:25:52.696Z,94663.91
2023-05-16T18:28:21.480Z,94660.47
2023-05-16T18:30:49.862Z,94670.97
2023-05-16T18:33:17.688Z,94670.91
2023-05-16T18:35:45.394Z,94666.97
2023-05-16T18:38:28.134Z,94672.16
2023-05-16T18:41:00.781Z,94680.13
2023-05-16T18:43:28.573Z,94678.41
2023-05-16T18:45:56.251Z,94685.25
2023-05-16T18:48:24.027Z,94683.38
2023-05-16T18:50:52.616Z,94688.00
2023-05-16T18:53:20.334Z,94684.53
2023-05-16T18:55:48.634Z,94683.72
2023-05-16T18:58:17.767Z,94695.41
2023-05-16T19:00:45.592Z,94702.34
2023-05-16T19:03:13.466Z,94700.34
2023-05-16T19:05:41.461Z,94706.44
2023-05-16T19:08:09.186Z,94706.13
2023-05-16T19:10:38.477Z,94707.94
2023-05-16T19:13:08.070Z,94717.56
2023-05-16T19:15:38.097Z,94708.75
2023-05-16T19:18:06.835Z,94723.31
2023-05-16T19:20:35.859Z,94724.09
2023-05-16T19:23:04.222Z,94731.00
2023-05-16T19:25:32.482Z,94731.00
2023-05-16T19:28:00.166Z,94732.97
2023-05-16T19:30:28.234Z,94750.00
2023-05-16T19:32:57.690Z,94750.34
2023-05-16T19:35:25.980Z,94762.63
2023-05-16T19:37:53.870Z,94770.69
2023-05-16T19:40:21.553Z,94768.78
2023-05-16T19:42:49.273Z,94770.22
2023-05-16T19:45:17.007Z,94776.44
2023-05-16T19:47:44.773Z,94785.56
2023-05-16T19:50:14.083Z,94790.41
2023-05-16T19:52:41.759Z,94792.16
2023-05-16T19:55:10.593Z,94795.19
2023-05-16T19:57:38.568Z,94785.47
2023-05-16T20:00:08.221Z,94797.75
2023-05-16T20:02:36.297Z,94799.38
2023-05-16T20:05:04.674Z,94797.63
2023-05-16T20:07:33.710Z,94802.72
2023-05-16T20:10:01.356Z,94806.78
2023-05-16T20:12:28.992Z,94813.59
2023-05-16T20:14:56.860Z,94813.25
2023-05-16T20:17:24.559Z,94811.63
2023-05-16T20:19:52.389Z,94812.34
2023-05-16T20:22:21.268Z,94811.63
2023-05-16T20:24:50.251Z,94815.06
2023-05-16T20:27:17.913Z,94817.78
2023-05-16T20:29:45.521Z,94817.69
2023-05-16T20:32:13.317Z,94820.16
2023-05-16T20:34:41.822Z,94823.09
2023-05-16T20:37:09.595Z,94825.22
2023-05-16T20:39:38.958Z,94833.91
2023-05-16T20:42:10.850Z,94829.19
2023-05-16T20:44:38.504Z,94831.66
2023-05-16T20:47:06.301Z,94827.88
2023-05-16T20:49:35.979Z,94832.00
2023-05-16T20:52:03.747Z,94831.78
2023-05-16T20:54:41.763Z,94824.59
2023-05-16T20:57:10.841Z,94823.19
2023-05-16T20:59:38.546Z,94829.78
2023-05-16T21:02:09.682Z,94835.94
2023-05-16T21:04:37.437Z,94834.28
2023-05-16T21:07:07.484Z,94841.47
2023-05-16T21:09:37.742Z,94834.66
2023-05-16T21:12:06.291Z,94834.03
2023-05-16T21:14:35.310Z,94837.38
2023-05-16T21:17:03.167Z,94838.31
2023-05-16T21:19:34.536Z,94849.03
2023-05-16T21:22:03.919Z,94863.31
2023-05-16T21:24:35.070Z,94854.34
2023-05-16T21:27:03.288Z,94869.31
2023-05-16T21:29:30.993Z,94869.69
2023-05-16T21:32:00.110Z,94877.25
2023-05-16T21:34:27.746Z,94867.34
2023-05-16T21:36:55.621Z,94877.72
2023-05-16T21:39:23.247Z,94875.22
2023-05-16T21:41:51.542Z,94878.63
2023-05-16T21:44:19.275Z,94885.72
2023-05-16T21:46:46.935Z,94887.16
2023-05-16T21:49:15.966Z,94896.69
2023-05-16T21:51:43.612Z,94896.13
2023-05-16T21:54:11.258Z,94902.09
2023-05-16T21:56:38.968Z,94901.41
2023-05-16T21:59:06.647Z,94907.97
2023-05-16T22:01:34.319Z,94910.47
2023-05-16T22:04:01.971Z,94912.13
2023-05-16T22:06:31.045Z,94902.94
2023-05-16T22:08:58.709Z,94913.41
2023-05-16T22:11:26.355Z,94917.06
2023-05-16T22:13:54.143Z,94919.91
2023-05-16T22:16:21.887Z,94921.41
2023-05-16T22:18:49.740Z,94920.13
2023-05-16T22:21:17.516Z,94920.59
2023-05-16T22:23:46.674Z,94923.09
2023-05-16T22:26:14.306Z,94921.53
2023-05-16T22:28:42.015Z,94926.94
2023-05-16T22:31:09.630Z,94932.88
2023-05-16T22:33:37.374Z,94936.72
2023-05-16T22:36:05.504Z,94936.63
2023-05-16T22:38:33.326Z,94933.91
2023-05-16T22:41:02.580Z,94939.78
2023-05-16T22:43:30.374Z,94947.56
2023-05-16T22:45:58.303Z,94949.47
2023-05-16T22:48:26.304Z,94950.97
2023-05-16T22:50:54.002Z,94950.97
2023-05-16T22:53:21.639Z,94951.34
2023-05-16T22:55:49.321Z,94957.94
2023-05-16T22:58:18.383Z,94957.31
2023-05-16T23:00:47.417Z,94955.91
2023-05-16T23:03:15.268Z,94947.66
2023-05-16T23:05:43.016Z,94952.38
2023-05-16T23:08:10.834Z,94948.44
2023-05-16T23:10:38.525Z,94948.59
2023-05-16T23:13:06.313Z,94942.44
2023-05-16T23:15:35.299Z,94948.31
2023-05-16T23:18:03.040Z,94951.41
2023-05-16T23:20:30.802Z,94952.94
2023-05-16T23:22:58.485Z,94958.25
2023-05-16T23:25:26.482Z,94959.88
2023-05-16T23:27:57.569Z,94963.09
2023-05-16T23:30:25.402Z,94970.28
2023-05-16T23:32:54.637Z,94974.06
2023-05-16T23:35:22.607Z,94967.56
2023-05-16T23:37:50.266Z,94962.28
2023-05-16T23:40:18.072Z,94977.72
2023-05-16T23:42:45.785Z,94974.78
2023-05-16T23:45:13.539Z,94973.97
2023-05-16T23:47:41.349Z,94975.03
2023-05-16T23:50:11.498Z,94981.00
2023-05-16T23:52:39.168Z,94982.19
2023-05-16T23:55:07.724Z,94985.81
2023-05-16T23:57:35.398Z,94983.56
